Time;durP1;ratioP1;P1;durP2;ratioP2;P2;SDS_P1;SDS_P2;PMS_P1;PMS_P2;Temp;Humidity;BMP_temperature;BMP_pressure;BME280_temperature;BME280_humidity;BME280_pressure;Samples;Min_cycle;Max_cycle;Signal;HPM_P1;HPM_P2
2021/12/14 00:01:50;;;;;;;;;;;;;;;23.84;18.15;100805.59;5053802;28;19968;-70
2021/12/14 00:04:17;;;;;;;;;;;;;;;23.83;18.15;100814.84;5055956;28;20011;-69
2021/12/14 00:06:42;;;;;;;;;;;;;;;23.83;18.25;100806.66;5054945;28;20393;-69
2021/12/14 00:09:09;;;;;;;;;;;;;;;23.83;18.27;100809.38;5054849;28;19917;-69
2021/12/14 00:16:45;;;;;;;;;;;;;;;23.81;18.24;100806.94;5054578;28;19925;-69
2021/12/14 00:19:10;;;;;;;;;;;;;;;23.81;18.28;100796.81;5044492;28;19924;-69
2021/12/14 00:21:36;;;;;;;;;;;;;;;23.81;18.22;100796.00;5034661;28;19917;-69
2021/12/14 00:24:14;;;;;;;;;;;;;;;23.79;18.38;100787.25;5034953;28;19995;-69
2021/12/14 00:26:39;;;;;;;;;;;;;;;23.81;18.24;100785.91;5034898;28;20008;-68
2021/12/14 00:29:05;;;;;;;;;;;;;;;23.81;18.26;100779.63;5034821;28;20004;-69
2021/12/14 00:31:32;;;;;;;;;;;;;;;23.80;18.41;100786.13;5034526;28;19960;-69
2021/12/14 00:34:02;;;;;;;;;;;;;;;23.80;18.52;100781.53;5034424;28;19931;-70
2021/12/14 00:36:27;;;;;;;;;;;;;;;23.78;18.28;100780.97;5034740;28;19917;-69
2021/12/14 00:38:56;;;;;;;;;;;;;;;23.79;18.48;100776.31;5034605;28;20004;-69
2021/12/14 00:41:23;;;;;;;;;;;;;;;23.79;18.41;100777.13;5034494;28;19924;-69
2021/12/14 00:43:48;;;;;;;;;;;;;;;23.77;18.32;100771.13;5034697;28;19924;-69
2021/12/14 00:46:13;;;;;;;;;;;;;;;23.78;18.45;100767.31;5034449;28;19917;-69
2021/12/14 00:48:39;;;;;;;;;;;;;;;23.79;18.39;100768.94;5034242;28;19920;-69
2021/12/14 00:51:04;;;;;;;;;;;;;;;23.79;18.24;100771.69;5034339;28;19917;-70
2021/12/14 00:53:30;;;;;;;;;;;;;;;23.79;18.55;100773.59;5034349;28;19917;-70
2021/12/14 00:55:55;;;;;;;;;;;;;;;23.78;18.48;100774.66;5034742;28;19928;-69
2021/12/14 00:58:20;;;;;;;;;;;;;;;23.78;18.58;100775.50;5034167;28;20435;-69
2021/12/14 01:00:54;;;;;;;;;;;;;;;23.76;18.46;100777.66;5032199;28;19924;-69
2021/12/14 01:03:19;;;;;;;;;;;;;;;23.77;18.61;100776.59;5034565;28;19917;-69
2021/12/14 01:05:45;;;;;;;;;;;;;;;23.81;18.54;100774.19;5034222;28;19917;-69
2021/12/14 01:08:13;;;;;;;;;;;;;;;23.78;18.55;100759.16;5033792;28;20275;-69
2021/12/14 01:10:40;;;;;;;;;;;;;;;23.77;18.63;100762.94;5034161;28;19917;-69
2021/12/14 01:13:09;;;;;;;;;;;;;;;23.76;18.44;100761.28;5033847;28;19956;-69
2021/12/14 01:15:51;;;;;;;;;;;;;;;23.76;18.66;100755.03;5033655;28;19925;-69
2021/12/14 01:18:29;;;;;;;;;;;;;;;23.76;18.71;100752.28;5035574;28;19917;-68
2021/12/14 01:20:59;;;;;;;;;;;;;;;23.74;18.49;100744.38;5053694;28;19917;-69
2021/12/14 01:23:34;;;;;;;;;;;;;;;23.74;18.67;100741.63;5054015;28;19924;-69
2021/12/14 01:26:05;;;;;;;;;;;;;;;23.75;18.62;100743.28;5053364;28;20356;-69
2021/12/14 01:28:30;;;;;;;;;;;;;;;23.75;18.54;100742.44;5053260;28;20329;-69
2021/12/14 01:31:15;;;;;;;;;;;;;;;23.74;18.80;100738.91;5053635;28;19917;-69
2021/12/14 01:33:41;;;;;;;;;;;;;;;23.78;18.84;100741.94;5053563;28;19916;-68
2021/12/14 01:36:12;;;;;;;;;;;;;;;23.75;18.66;100740.56;5053658;28;20381;-68
2021/12/14 01:38:47;;;;;;;;;;;;;;;23.73;18.83;100740.03;5053288;28;19917;-68
2021/12/14 01:41:13;;;;;;;;;;;;;;;23.72;18.87;100724.72;5053655;28;20008;-68
2021/12/14 01:43:38;;;;;;;;;;;;;;;23.72;18.96;100727.44;5054382;28;19952;-68
2021/12/14 01:46:07;;;;;;;;;;;;;;;23.71;18.92;100720.34;5053161;28;19924;-68
2021/12/14 01:48:32;;;;;;;;;;;;;;;23.71;18.92;100714.88;5053464;28;20026;-68
2021/12/14 01:50:59;;;;;;;;;;;;;;;23.73;18.97;100710.00;5053585;28;19917;-69
2021/12/14 01:53:24;;;;;;;;;;;;;;;23.72;18.91;100694.72;5053543;28;19924;-69
2021/12/14 01:55:53;;;;;;;;;;;;;;;23.74;18.93;100695.25;5053434;28;20251;-69
2021/12/14 01:58:18;;;;;;;;;;;;;;;23.72;18.99;100689.25;5053497;28;19917;-69
2021/12/14 02:00:46;;;;;;;;;;;;;;;23.71;18.98;100684.88;5053154;28;20381;-69
2021/12/14 02:03:12;;;;;;;;;;;;;;;23.72;19.00;100685.72;5053563;28;19921;-69
2021/12/14 02:05:39;;;;;;;;;;;;;;;23.71;18.91;100682.13;5053519;28;20308;-69
2021/12/14 02:08:12;;;;;;;;;;;;;;;23.70;18.93;100685.97;5053123;28;20362;-69
2021/12/14 02:10:37;;;;;;;;;;;;;;;23.71;19.06;100679.41;5053140;28;20335;-69
2021/12/14 02:13:03;;;;;;;;;;;;;;;23.69;19.13;100678.88;5056397;28;19948;-69
2021/12/14 02:15:32;;;;;;;;;;;;;;;23.70;19.08;100675.06;5056705;28;20383;-69
2021/12/14 02:17:58;;;;;;;;;;;;;;;23.68;19.21;100666.31;5057022;28;19920;-69
2021/12/14 02:20:25;;;;;;;;;;;;;;;23.65;19.22;100655.94;5039131;28;20012;-69
2021/12/14 02:22:50;;;;;;;;;;;;;;;23.68;19.08;100657.31;5036847;28;19921;-69
2021/12/14 02:25:15;;;;;;;;;;;;;;;23.69;19.15;100653.50;5037222;28;20390;-69
2021/12/14 02:27:42;;;;;;;;;;;;;;;23.68;19.06;100644.50;5037141;28;20251;-69
2021/12/14 02:30:09;;;;;;;;;;;;;;;23.68;19.17;100644.50;5036771;28;19917;-69
2021/12/14 02:32:34;;;;;;;;;;;;;;;23.67;19.08;100640.13;5037185;28;19917;-69
2021/12/14 02:35:00;;;;;;;;;;;;;;;23.67;19.22;100637.41;5036704;28;19917;-69
2021/12/14 02:37:34;;;;;;;;;;;;;;;23.68;19.31;100639.03;5037110;28;19917;-69
2021/12/14 02:40:03;;;;;;;;;;;;;;;23.66;19.32;100634.94;5036611;28;20016;-69
2021/12/14 02:42:30;;;;;;;;;;;;;;;23.66;19.35;100632.19;5036895;28;19925;-69
2021/12/14 02:44:55;;;;;;;;;;;;;;;23.67;19.22;100628.41;5036788;28;20012;-70
2021/12/14 02:47:20;;;;;;;;;;;;;;;23.66;19.38;100624.03;5036658;28;20056;-69
2021/12/14 02:49:46;;;;;;;;;;;;;;;23.66;19.32;100619.38;5035273;28;20373;-69
2021/12/14 02:52:12;;;;;;;;;;;;;;;23.66;19.22;100619.38;5036553;28;19940;-69
2021/12/14 02:54:47;;;;;;;;;;;;;;;23.63;19.32;100626.19;5036757;28;20334;-69
2021/12/14 02:57:14;;;;;;;;;;;;;;;23.65;19.43;100623.22;5036799;28;19936;-69
2021/12/14 02:59:40;;;;;;;;;;;;;;;23.64;19.40;100621.56;5036574;28;19917;-69
2021/12/14 03:02:08;;;;;;;;;;;;;;;23.62;19.43;100624.56;5036503;28;20268;-69
2021/12/14 03:04:44;;;;;;;;;;;;;;;23.64;19.43;100621.56;5036139;28;20020;-69
2021/12/14 03:07:09;;;;;;;;;;;;;;;23.65;19.41;100617.75;5036349;28;19921;-70
2021/12/14 03:09:51;;;;;;;;;;;;;;;23.64;19.19;100616.09;5036413;28;20007;-68
2021/12/14 03:12:23;;;;;;;;;;;;;;;23.64;19.61;100613.38;5036061;28;19924;-69
2021/12/14 03:14:55;;;;;;;;;;;;;;;23.63;19.52;100614.47;5036889;28;19979;-69
2021/12/14 03:17:20;;;;;;;;;;;;;;;23.62;19.32;100612.81;5035697;28;19925;-69
2021/12/14 03:19:55;;;;;;;;;;;;;;;23.62;19.36;100623.75;5047316;28;19917;-68
2021/12/14 03:22:40;;;;;;;;;;;;;;;23.63;19.41;100614.47;5055805;28;19924;-70
2021/12/14 03:25:06;;;;;;;;;;;;;;;23.63;19.41;100612.56;5056214;28;19917;-69
2021/12/14 03:27:31;;;;;;;;;;;;;;;23.64;19.45;100607.91;5056861;28;20346;-69
2021/12/14 03:29:57;;;;;;;;;;;;;;;23.63;19.46;100604.38;5056198;28;20375;-70
2021/12/14 03:32:22;;;;;;;;;;;;;;;23.62;19.50;100596.47;5055956;28;20285;-69
2021/12/14 03:34:47;;;;;;;;;;;;;;;23.62;19.33;100594.53;5056387;28;19917;-69
2021/12/14 03:37:17;;;;;;;;;;;;;;;23.63;19.43;100593.47;5059725;28;19977;-68
2021/12/14 03:39:44;;;;;;;;;;;;;;;23.61;19.49;100583.91;5061272;28;19916;-68
2021/12/14 03:42:13;;;;;;;;;;;;;;;23.61;19.55;100579.28;5062563;28;19928;-68
2021/12/14 03:44:40;;;;;;;;;;;;;;;23.60;19.53;100577.63;5064284;28;19923;-69
2021/12/14 03:47:06;;;;;;;;;;;;;;;23.60;19.53;100571.38;5060987;28;19923;-68
2021/12/14 03:49:32;;;;;;;;;;;;;;;23.59;19.54;100558.81;5061842;28;19988;-68
2021/12/14 03:51:58;;;;;;;;;;;;;;;23.60;19.53;100568.63;5063585;28;19952;-68
2021/12/14 03:54:23;;;;;;;;;;;;;;;23.60;19.40;100563.19;5057325;28;20367;-69
2021/12/14 03:56:48;;;;;;;;;;;;;;;23.60;19.61;100563.19;5055791;28;19963;-69
2021/12/14 03:59:14;;;;;;;;;;;;;;;23.60;19.48;100560.44;5055779;28;19924;-68
2021/12/14 04:01:40;;;;;;;;;;;;;;;23.60;19.43;100549.53;5055157;28;19960;-68
2021/12/14 04:04:22;;;;;;;;;;;;;;;23.60;19.42;100561.25;5055115;28;20416;-68
2021/12/14 04:06:48;;;;;;;;;;;;;;;23.59;19.61;100559.63;5054957;28;20432;-69
2021/12/14 04:09:14;;;;;;;;;;;;;;;23.65;19.43;100543.28;5055156;28;19940;-68
2021/12/14 04:11:40;;;;;;;;;;;;;;;23.66;19.54;100542.97;5055387;28;20370;-68
2021/12/14 04:14:07;;;;;;;;;;;;;;;23.69;19.39;100531.53;5055093;28;19917;-68
2021/12/14 04:16:33;;;;;;;;;;;;;;;23.72;19.49;100533.72;5054612;28;19925;-69
2021/12/14 04:19:04;;;;;;;;;;;;;;;23.77;19.21;100533.72;5051399;28;20335;-69
2021/12/14 04:21:29;;;;;;;;;;;;;;;23.79;19.51;100526.06;5034048;28;19921;-69
2021/12/14 04:23:55;;;;;;;;;;;;;;;23.85;19.18;100529.66;5035184;28;19943;-69
2021/12/14 04:26:20;;;;;;;;;;;;;;;23.86;19.20;100525.84;5034874;28;19917;-68
2021/12/14 04:28:54;;;;;;;;;;;;;;;23.87;19.36;100521.19;5034368;28;20319;-68
2021/12/14 04:31:19;;;;;;;;;;;;;;;23.91;19.41;100519.56;5035727;28;19925;-68
2021/12/14 04:33:46;;;;;;;;;;;;;;;23.91;19.09;100514.13;5034643;28;19995;-69
2021/12/14 04:36:15;;;;;;;;;;;;;;;23.94;19.28;100510.81;5034517;28;19917;-69
2021/12/14 04:38:51;;;;;;;;;;;;;;;23.97;19.28;100499.34;5033689;28;19924;-68
2021/12/14 04:52:16;;;;;;;;;;;;;;;24.05;18.93;100496.06;5034373;28;19963;-69
2021/12/14 04:54:51;;;;;;;;;;;;;;;24.08;19.05;100490.06;5034142;28;19917;-69
2021/12/14 04:57:27;;;;;;;;;;;;;;;24.10;18.96;100489.81;5033166;28;19917;-69
2021/12/14 04:59:53;;;;;;;;;;;;;;;24.12;19.04;100482.94;5034311;28;19917;-69
2021/12/14 05:02:20;;;;;;;;;;;;;;;24.15;18.86;100481.59;5033853;28;19936;-68
2021/12/14 05:04:45;;;;;;;;;;;;;;;24.17;19.06;100474.75;5035001;28;19924;-68
2021/12/14 05:07:47;;;;;;;;;;;;;;;24.19;19.02;100464.38;5033807;28;19917;-68
2021/12/14 05:10:17;;;;;;;;;;;;;;;24.21;19.15;100471.47;5034432;28;19940;-70
2021/12/14 05:12:42;;;;;;;;;;;;;;;24.24;19.13;100468.19;5034002;28;20283;-69
2021/12/14 05:15:08;;;;;;;;;;;;;;;24.12;19.31;100463.84;5032500;28;19923;-70
2021/12/14 05:17:34;;;;;;;;;;;;;;;24.24;19.18;100468.19;5034547;28;19921;-70
2021/12/14 05:19:59;;;;;;;;;;;;;;;24.28;19.18;100458.34;5045007;28;19921;-69
2021/12/14 05:22:31;;;;;;;;;;;;;;;24.28;19.26;100461.88;5054122;28;20384;-69
2021/12/14 05:25:01;;;;;;;;;;;;;;;24.35;19.30;100456.97;5054533;28;20257;-69
2021/12/14 05:27:30;;;;;;;;;;;;;;;24.41;19.44;100468.69;5054020;28;19968;-69
2021/12/14 05:30:01;;;;;;;;;;;;;;;24.45;19.32;100455.28;5053895;28;19971;-69
2021/12/14 05:32:27;;;;;;;;;;;;;;;24.50;19.34;100453.34;5054769;28;20231;-69
2021/12/14 05:34:52;;;;;;;;;;;;;;;24.57;19.16;100446.81;5053962;28;19916;-68
2021/12/14 05:37:21;;;;;;;;;;;;;;;24.64;18.96;100447.31;5053988;28;20031;-69
2021/12/14 05:39:56;;;;;;;;;;;;;;;24.65;19.05;100430.66;5053686;28;20007;-71
2021/12/14 05:45:07;;;;;;;;;;;;;;;24.77;18.79;100435.78;5052641;28;19971;-70
2021/12/14 05:47:32;;;;;;;;;;;;;;;24.82;18.93;100433.03;5057540;28;19917;-69
2021/12/14 05:49:57;;;;;;;;;;;;;;;24.86;18.75;100439.56;5056474;28;19987;-69
2021/12/14 05:52:26;;;;;;;;;;;;;;;24.90;18.90;100429.69;5057463;28;19923;-69
2021/12/14 05:54:52;;;;;;;;;;;;;;;24.98;18.53;100431.00;5057716;28;19917;-70
2021/12/14 05:57:19;;;;;;;;;;;;;;;25.03;18.85;100433.72;5057915;28;19924;-70
2021/12/14 05:59:44;;;;;;;;;;;;;;;25.04;18.50;100429.88;5057706;28;19917;-69
2021/12/14 06:02:10;;;;;;;;;;;;;;;25.07;18.55;100426.56;5057239;28;19924;-69
2021/12/14 06:04:36;;;;;;;;;;;;;;;25.07;18.60;100426.56;5057506;28;20031;-69
2021/12/14 06:07:02;;;;;;;;;;;;;;;25.14;18.34;100423.50;5057293;28;19917;-69
2021/12/14 06:09:29;;;;;;;;;;;;;;;25.14;18.70;100426.25;5057389;28;20343;-68
2021/12/14 06:11:58;;;;;;;;;;;;;;;25.17;18.38;100422.97;5057276;28;19917;-69
2021/12/14 06:14:24;;;;;;;;;;;;;;;25.20;18.23;100418.81;5056972;28;19923;-68
2021/12/14 06:16:50;;;;;;;;;;;;;;;25.22;18.22;100414.72;5056610;28;20011;-69
2021/12/14 06:19:21;;;;;;;;;;;;;;;25.26;18.11;100409.53;5054062;28;20027;-71
2021/12/14 06:21:47;;;;;;;;;;;;;;;25.30;18.46;100405.94;5038461;28;20000;-71
2021/12/14 06:24:13;;;;;;;;;;;;;;;25.29;18.28;100398.81;5038427;28;19918;-70
2021/12/14 06:26:39;;;;;;;;;;;;;;;25.33;18.35;100403.72;5039966;28;19917;-71
2021/12/14 06:29:08;;;;;;;;;;;;;;;25.36;18.35;100414.09;5038229;28;20382;-71
2021/12/14 06:31:33;;;;;;;;;;;;;;;25.41;18.12;100403.94;5039043;28;19924;-71
2021/12/14 06:34:31;;;;;;;;;;;;;;;25.45;18.17;100406.91;5038482;28;20363;-70
2021/12/14 06:37:20;;;;;;;;;;;;;;;25.49;18.17;100397.00;5016700;28;19956;-70
2021/12/14 06:39:58;;;;;;;;;;;;;;;25.46;18.34;100397.59;5015932;28;19917;-71
2021/12/14 06:42:24;;;;;;;;;;;;;;;25.51;17.80;100400.28;5014507;28;19921;-70
2021/12/14 06:44:49;;;;;;;;;;;;;;;25.44;18.11;100388.84;5015865;28;20411;-70
2021/12/14 06:47:14;;;;;;;;;;;;;;;25.55;17.84;100395.88;5014740;28;19917;-70
2021/12/14 06:49:40;;;;;;;;;;;;;;;25.57;17.82;100388.19;5014906;28;19948;-70
2021/12/14 06:52:05;;;;;;;;;;;;;;;25.65;17.80;100379.34;4997940;28;20386;-70
2021/12/14 06:54:30;;;;;;;;;;;;;;;25.55;18.06;100390.41;4997740;28;19922;-70
2021/12/14 06:56:57;;;;;;;;;;;;;;;25.56;17.79;100383.84;4997187;28;19918;-71
2021/12/14 06:59:22;;;;;;;;;;;;;;;25.59;17.96;100383.22;5014134;28;20290;-70
2021/12/14 07:01:49;;;;;;;;;;;;;;;25.63;17.80;100378.84;5014255;28;20012;-70
2021/12/14 07:04:15;;;;;;;;;;;;;;;25.72;17.82;100372.72;5014526;28;19924;-70
2021/12/14 07:06:48;;;;;;;;;;;;;;;25.63;18.02;100376.09;5014146;28;20395;-70
2021/12/14 07:09:15;;;;;;;;;;;;;;;25.73;17.81;100377.09;5013948;28;20004;-71
2021/12/14 07:11:41;;;;;;;;;;;;;;;25.73;17.86;100374.34;5017125;28;20012;-72
2021/12/14 07:14:08;;;;;;;;;;;;;;;25.75;17.52;100377.59;5035938;28;20367;-72
2021/12/14 07:16:37;;;;;;;;;;;;;;;25.77;17.53;100378.97;5034607;28;19928;-72
2021/12/14 07:19:03;;;;;;;;;;;;;;;25.76;17.60;100380.06;5019941;28;19975;-72
2021/12/14 07:21:47;;;;;;;;;;;;;;;25.73;17.71;100377.09;5056492;28;19917;-72
2021/12/14 07:24:33;;;;;;;;;;;;;;;25.82;17.69;100369.91;5055962;28;19928;-73
2021/12/14 07:27:10;;;;;;;;;;;;;;;25.90;17.61;100374.72;5055311;28;19959;-73
2021/12/14 07:29:35;;;;;;;;;;;;;;;25.91;17.67;100365.41;5055608;28;19956;-72
2021/12/14 07:32:01;;;;;;;;;;;;;;;25.91;17.71;100372.81;5056069;28;19947;-72
2021/12/14 07:34:26;;;;;;;;;;;;;;;25.99;17.42;100364.78;5056692;28;20346;-72
2021/12/14 07:36:51;;;;;;;;;;;;;;;25.97;17.49;100363.44;5056041;28;20007;-73
2021/12/14 07:39:17;;;;;;;;;;;;;;;26.02;17.71;100355.16;5056103;28;19922;-73
2021/12/14 07:41:43;;;;;;;;;;;;;;;26.02;17.48;100345.03;5056132;28;19956;-73
2021/12/14 07:44:10;;;;;;;;;;;;;;;26.06;17.60;100353.50;5056415;28;19917;-71
2021/12/14 07:46:38;;;;;;;;;;;;;;;26.07;17.46;100346.09;5055501;28;20382;-72
2021/12/14 07:49:27;;;;;;;;;;;;;;;26.12;17.42;100352.31;5055644;28;19917;-72
2021/12/14 07:51:55;;;;;;;;;;;;;;;26.07;17.42;100351.56;5049776;28;19917;-72
2021/12/14 07:54:22;;;;;;;;;;;;;;;26.11;17.44;100347.94;5055333;28;19920;-72
2021/12/14 07:56:51;;;;;;;;;;;;;;;26.13;17.43;100343.00;5055159;28;19999;-71
2021/12/14 07:59:27;;;;;;;;;;;;;;;26.15;17.58;100343.50;5053587;28;19963;-72
2021/12/14 08:02:21;;;;;;;;;;;;;;;26.21;17.63;100333.31;5054731;28;19928;-71
2021/12/14 08:04:51;;;;;;;;;;;;;;;26.19;17.27;100330.03;5012667;28;20287;-72
2021/12/14 08:07:43;;;;;;;;;;;;;;;26.21;17.64;100336.03;4996533;28;19933;-71
2021/12/14 08:10:13;;;;;;;;;;;;;;;26.24;17.38;100328.03;5010594;28;19952;-72
2021/12/14 08:12:40;;;;;;;;;;;;;;;26.25;17.62;100328.88;5012324;28;19917;-72
2021/12/14 08:15:10;;;;;;;;;;;;;;;26.31;17.34;100335.09;5012315;28;19921;-72
2021/12/14 08:17:36;;;;;;;;;;;;;;;26.27;17.50;100334.88;4996376;28;20363;-71
2021/12/14 08:20:03;;;;;;;;;;;;;;;26.31;17.25;100335.09;5012328;28;19940;-71
2021/12/14 08:22:29;;;;;;;;;;;;;;;26.33;17.24;100335.63;5012732;28;20004;-72
2021/12/14 08:24:54;;;;;;;;;;;;;;;26.37;17.16;100336.66;5012276;28;19917;-72
2021/12/14 08:27:20;;;;;;;;;;;;;;;26.34;17.16;100329.84;5013694;28;19947;-71
2021/12/14 08:29:48;;;;;;;;;;;;;;;26.37;17.20;100329.25;5014617;28;20370;-72
2021/12/14 08:32:13;;;;;;;;;;;;;;;26.40;17.14;100328.66;5014543;28;19945;-72
2021/12/14 08:34:40;;;;;;;;;;;;;;;26.39;17.15;100327.03;5012012;28;20375;-71
2021/12/14 08:37:09;;;;;;;;;;;;;;;26.45;17.06;100326.97;5013306;28;19913;-71
2021/12/14 08:39:42;;;;;;;;;;;;;;;26.41;17.08;100324.81;5012180;28;19929;-72
2021/12/14 08:42:11;;;;;;;;;;;;;;;26.40;17.14;100322.38;5032275;28;19913;-72
2021/12/14 08:44:41;;;;;;;;;;;;;;;26.43;16.84;100311.63;5033923;28;20382;-72
2021/12/14 08:47:08;;;;;;;;;;;;;;;26.48;16.95;100312.69;5033848;28;19925;-72
2021/12/14 08:49:33;;;;;;;;;;;;;;;26.47;16.80;100300.06;5033011;28;19917;-72
2021/12/14 08:51:59;;;;;;;;;;;;;;;26.50;16.75;100304.97;5034657;28;20351;-73
2021/12/14 08:54:26;;;;;;;;;;;;;;;26.56;16.99;100301.03;5034642;28;19981;-72
2021/12/14 08:57:14;;;;;;;;;;;;;;;26.50;16.71;100304.97;5034516;28;19931;-72
2021/12/14 08:59:40;;;;;;;;;;;;;;;26.55;16.77;100296.69;5033989;28;19921;-71
2021/12/14 09:02:07;;;;;;;;;;;;;;;26.56;16.90;100299.13;5034067;28;19917;-72
2021/12/14 09:04:34;;;;;;;;;;;;;;;26.48;16.86;100296.25;5034689;28;19917;-72
2021/12/14 09:07:05;;;;;;;;;;;;;;;26.50;16.84;100291.28;5036422;28;20004;-71
2021/12/14 09:09:31;;;;;;;;;;;;;;;26.48;16.79;100291.56;5034309;28;19925;-72
2021/12/14 09:12:24;;;;;;;;;;;;;;;26.41;16.76;100286.44;5033909;28;20213;-71
2021/12/14 09:14:49;;;;;;;;;;;;;;;26.60;16.40;100288.38;5032480;28;19973;-71
2021/12/14 09:17:15;;;;;;;;;;;;;;;26.59;16.61;100281.25;5033413;28;19921;-71
2021/12/14 09:19:45;;;;;;;;;;;;;;;26.60;16.37;100289.19;5039185;28;19995;-71
2021/12/14 09:22:12;;;;;;;;;;;;;;;26.70;16.25;100281.94;5056081;28;19967;-71
2021/12/14 09:24:38;;;;;;;;;;;;;;;26.62;16.45;100283.44;5055306;28;19920;-72
2021/12/14 09:27:04;;;;;;;;;;;;;;;26.69;16.34;100283.88;5054515;28;19986;-71
2021/12/14 09:29:30;;;;;;;;;;;;;;;26.71;16.12;100270.66;5054101;28;19944;-71
2021/12/14 09:31:56;;;;;;;;;;;;;;;26.67;16.17;100272.41;5053556;28;20358;-71
2021/12/14 09:34:22;;;;;;;;;;;;;;;26.69;16.06;100270.16;5056957;28;19944;-71
2021/12/14 09:36:49;;;;;;;;;;;;;;;26.68;16.18;100262.22;5054009;28;19917;-71
2021/12/14 09:39:17;;;;;;;;;;;;;;;26.66;16.19;100262.53;5054023;28;19924;-71
2021/12/14 09:41:43;;;;;;;;;;;;;;;26.68;16.23;100254.84;5054035;28;19944;-71
2021/12/14 09:44:09;;;;;;;;;;;;;;;26.61;16.14;100259.84;5053957;28;19924;-71
2021/12/14 09:46:34;;;;;;;;;;;;;;;26.63;16.21;100251.34;5053575;28;20260;-71
2021/12/14 09:49:01;;;;;;;;;;;;;;;26.66;15.94;100254.31;5053411;28;19928;-71
2021/12/14 09:51:28;;;;;;;;;;;;;;;26.69;16.16;100250.97;5053440;28;19917;-71
2021/12/14 09:53:54;;;;;;;;;;;;;;;26.72;16.22;100253.13;5051856;28;19923;-71
2021/12/14 09:56:20;;;;;;;;;;;;;;;26.76;16.24;100254.16;5052973;28;19954;-71
2021/12/14 09:58:47;;;;;;;;;;;;;;;26.70;16.11;100255.34;5053176;28;19940;-71
2021/12/14 10:01:20;;;;;;;;;;;;;;;26.77;16.19;100244.81;5053830;28;20007;-71
2021/12/14 10:03:46;;;;;;;;;;;;;;;26.78;15.96;100248.38;5053024;28;19917;-71
2021/12/14 10:06:13;;;;;;;;;;;;;;;26.77;16.21;100244.00;5053219;28;19924;-71
2021/12/14 10:08:41;;;;;;;;;;;;;;;26.80;15.82;100240.66;5052833;28;19916;-71
2021/12/14 10:11:09;;;;;;;;;;;;;;;26.75;16.00;100249.78;5052790;28;19917;-72
2021/12/14 10:13:35;;;;;;;;;;;;;;;26.78;15.96;100238.19;5053317;28;20271;-71
2021/12/14 10:16:00;;;;;;;;;;;;;;;26.78;16.05;100240.94;5052630;28;19921;-72
2021/12/14 10:18:27;;;;;;;;;;;;;;;26.78;15.99;100229.19;5052960;28;19921;-71
2021/12/14 10:20:54;;;;;;;;;;;;;;;26.83;15.90;100236.50;5039044;28;19924;-71
2021/12/14 10:23:20;;;;;;;;;;;;;;;26.83;15.83;100228.28;5036470;28;19964;-72
2021/12/14 10:25:46;;;;;;;;;;;;;;;26.84;15.99;100221.66;5037381;28;19972;-72
2021/12/14 10:28:11;;;;;;;;;;;;;;;26.82;15.69;100218.41;5032943;28;19921;-71
2021/12/14 10:30:38;;;;;;;;;;;;;;;26.73;15.85;100213.66;5033888;28;19917;-73
2021/12/14 10:33:03;;;;;;;;;;;;;;;26.75;15.85;100216.91;5034678;28;19987;-72
2021/12/14 10:35:35;;;;;;;;;;;;;;;26.79;15.60;100209.69;5036569;28;20375;-72
2021/12/14 10:38:26;;;;;;;;;;;;;;;26.81;15.91;100203.91;5037047;28;19929;-73
2021/12/14 10:43:31;;;;;;;;;;;;;;;26.78;15.96;100193.53;5036847;28;19932;-72
2021/12/14 10:46:01;;;;;;;;;;;;;;;26.86;15.69;100190.09;5036794;28;19918;-72
2021/12/14 10:48:28;;;;;;;;;;;;;;;26.84;15.79;100183.28;5036795;28;19925;-70
2021/12/14 10:50:54;;;;;;;;;;;;;;;26.86;15.78;100189.31;5036874;28;19966;-71
2021/12/14 10:53:20;;;;;;;;;;;;;;;26.84;15.80;100177.81;5036501;28;20438;-71
2021/12/14 10:55:52;;;;;;;;;;;;;;;26.85;15.73;100180.25;5036473;28;19917;-71
2021/12/14 10:58:19;;;;;;;;;;;;;;;26.87;15.85;100180.78;5035982;28;20302;-71
2021/12/14 11:00:54;;;;;;;;;;;;;;;26.85;15.95;100179.44;5036380;28;19917;-71
2021/12/14 11:03:21;;;;;;;;;;;;;;;26.89;15.72;100172.22;5036159;28;19921;-71
2021/12/14 11:05:48;;;;;;;;;;;;;;;26.91;15.61;100173.56;5036142;28;19923;-71
2021/12/14 11:11:12;;;;;;;;;;;;;;;27.02;15.61;100157.72;5014187;28;19918;-71
2021/12/14 11:13:41;;;;;;;;;;;;;;;27.00;15.35;100148.19;4998422;28;19948;-72
2021/12/14 11:16:14;;;;;;;;;;;;;;;27.00;15.60;100154.47;5013328;28;19957;-72
2021/12/14 11:18:39;;;;;;;;;;;;;;;26.86;15.73;100156.41;4998683;28;19929;-71
2021/12/14 11:21:07;;;;;;;;;;;;;;;26.93;15.64;100151.34;5012880;28;20379;-72
2021/12/14 11:23:37;;;;;;;;;;;;;;;26.95;15.43;100149.09;5033653;28;19923;-71
2021/12/14 11:26:07;;;;;;;;;;;;;;;26.99;15.60;100147.34;5033694;28;20461;-72
2021/12/14 11:28:38;;;;;;;;;;;;;;;26.98;15.66;100145.75;5033529;28;19940;-71
2021/12/14 11:31:03;;;;;;;;;;;;;;;26.90;15.67;100144.50;5033180;28;20292;-72
2021/12/14 11:33:30;;;;;;;;;;;;;;;26.99;15.35;100141.88;5033290;28;19961;-71
2021/12/14 11:35:58;;;;;;;;;;;;;;;26.91;15.64;100145.34;5033048;28;19967;-71
2021/12/14 11:38:43;;;;;;;;;;;;;;;26.98;15.48;100141.06;5033194;28;19924;-72
2021/12/14 11:41:27;;;;;;;;;;;;;;;27.06;15.26;100136.81;5033045;28;19951;-72
2021/12/14 11:43:57;;;;;;;;;;;;;;;27.05;15.28;100135.19;5032511;28;19925;-71
2021/12/14 11:46:23;;;;;;;;;;;;;;;27.12;15.23;100123.81;5033968;28;19917;-72
2021/12/14 11:48:48;;;;;;;;;;;;;;;27.04;15.36;100133.53;5054913;28;20281;-72
2021/12/14 11:51:13;;;;;;;;;;;;;;;27.03;15.25;100129.19;5055135;28;19917;-72
2021/12/14 11:53:38;;;;;;;;;;;;;;;27.12;15.39;100132.03;5055582;28;20433;-71
2021/12/14 11:56:04;;;;;;;;;;;;;;;27.16;15.29;100125.66;5054549;28;19924;-72
2021/12/14 11:58:35;;;;;;;;;;;;;;;27.17;15.25;100121.78;5055694;28;19974;-72
2021/12/14 12:01:00;;;;;;;;;;;;;;;27.13;15.34;100108.97;5053871;28;19963;-73
2021/12/14 12:03:25;;;;;;;;;;;;;;;27.16;15.27;100113.84;5054556;28;19959;-73
2021/12/14 12:05:58;;;;;;;;;;;;;;;27.14;15.35;100105.91;5054855;28;19976;-73
2021/12/14 12:11:11;;;;;;;;;;;;;;;27.20;15.33;100094.84;5053963;28;20015;-73
2021/12/14 12:13:37;;;;;;;;;;;;;;;27.15;15.25;100091.09;5054624;28;19956;-72
2021/12/14 12:16:10;;;;;;;;;;;;;;;27.23;15.45;100094.25;5054626;28;19927;-73
2021/12/14 12:18:35;;;;;;;;;;;;;;;27.22;15.31;100096.19;5054738;28;19932;-73
2021/12/14 12:21:00;;;;;;;;;;;;;;;27.29;15.14;100088.38;5054470;28;19927;-72
2021/12/14 12:23:27;;;;;;;;;;;;;;;27.32;15.25;100084.19;5053206;28;20343;-74
2021/12/14 12:25:59;;;;;;;;;;;;;;;27.37;14.97;100086.81;5054526;28;20289;-74
2021/12/14 12:28:29;;;;;;;;;;;;;;;27.37;15.11;100089.56;5054419;28;19917;-73
2021/12/14 12:31:05;;;;;;;;;;;;;;;27.25;15.02;100083.75;5054618;28;19927;-74
2021/12/14 12:33:30;;;;;;;;;;;;;;;27.30;15.00;100081.78;5054232;28;19925;-73
2021/12/14 12:35:57;;;;;;;;;;;;;;;27.37;14.99;100081.34;5055222;28;20404;-73
2021/12/14 12:38:25;;;;;;;;;;;;;;;27.39;14.93;100084.59;5054049;28;20460;-72
2021/12/14 12:41:02;;;;;;;;;;;;;;;27.36;14.99;100087.97;5054709;28;19917;-75
2021/12/14 12:43:35;;;;;;;;;;;;;;;27.40;14.99;100088.97;5055057;28;20028;-73
2021/12/14 12:46:06;;;;;;;;;;;;;;;27.49;14.87;100080.81;5055325;28;19920;-73
2021/12/14 12:48:50;;;;;;;;;;;;;;;27.50;14.93;100082.44;5054683;28;19920;-72
2021/12/14 12:51:34;;;;;;;;;;;;;;;27.47;14.79;100078.38;5055227;28;19917;-73
2021/12/14 12:54:14;;;;;;;;;;;;;;;27.38;14.79;100077.47;5053990;28;19967;-73
2021/12/14 12:56:42;;;;;;;;;;;;;;;27.39;14.90;100072.78;5054246;28;19944;-73
2021/12/14 12:59:08;;;;;;;;;;;;;;;27.33;15.01;100074.84;5054672;28;20351;-73
2021/12/14 13:01:33;;;;;;;;;;;;;;;27.35;14.83;100072.59;5054438;28;20417;-74
2021/12/14 13:03:59;;;;;;;;;;;;;;;27.40;15.14;100068.94;5054259;28;19957;-72
2021/12/14 13:06:24;;;;;;;;;;;;;;;27.45;15.03;100064.16;5054059;28;19963;-73
2021/12/14 13:08:52;;;;;;;;;;;;;;;27.50;14.88;100066.78;5054436;28;19971;-74
2021/12/14 13:11:22;;;;;;;;;;;;;;;27.36;15.02;100060.53;5054644;28;20251;-75